createdAt,value
2023-05-05T00:01:55.145Z,98396.78
2023-05-05T00:04:40.294Z,98440.31
2023-05-05T00:07:25.452Z,98442.88
2023-05-05T00:10:10.779Z,98451.53
2023-05-05T00:12:56.344Z,98418.41
2023-05-05T00:15:46.333Z,98450.00
2023-05-05T00:18:31.756Z,98442.44
2023-05-05T00:21:17.319Z,98446.06
2023-05-05T00:24:03.078Z,98372.56
2023-05-05T00:26:48.511Z,98438.97
2023-05-05T00:29:33.887Z,98368.28
2023-05-05T00:32:19.095Z,98406.19
2023-05-05T00:35:04.633Z,98422.25
2023-05-05T00:37:50.165Z,98427.06
2023-05-05T00:40:36.403Z,98358.09
2023-05-05T00:43:21.869Z,98425.06
2023-05-05T00:46:22.237Z,98413.25
2023-05-05T00:49:08.347Z,98408.53
2023-05-05T00:51:53.832Z,98412.25
2023-05-05T00:54:39.157Z,98385.19
2023-05-05T00:57:25.428Z,98407.84
2023-05-05T01:00:11.207Z,98413.59
2023-05-05T01:02:56.779Z,98368.31
2023-05-05T01:06:10.239Z,98401.03
2023-05-05T01:09:15.539Z,98406.31
2023-05-05T01:12:18.967Z,98397.13
2023-05-05T01:15:14.803Z,98399.38
2023-05-05T01:18:11.801Z,98388.28
2023-05-05T01:21:19.609Z,98389.63
2023-05-05T01:24:26.220Z,98390.97
2023-05-05T01:27:39.272Z,98392.50
2023-05-05T01:30:43.197Z,98392.78
2023-05-05T01:33:35.218Z,98390.72
2023-05-05T01:36:25.224Z,98389.56
2023-05-05T01:39:15.668Z,98387.13
2023-05-05T01:42:08.038Z,98391.66
2023-05-05T01:44:54.279Z,98394.28
2023-05-05T01:47:40.488Z,98394.00
2023-05-05T01:50:28.775Z,98393.19
2023-05-05T01:53:17.225Z,98398.63
2023-05-05T01:56:03.680Z,98372.50
2023-05-05T01:58:49.748Z,98400.78
2023-05-05T02:01:38.679Z,98401.63
2023-05-05T02:04:24.369Z,98389.09
2023-05-05T02:07:12.593Z,98384.66
2023-05-05T02:09:59.413Z,98342.00
2023-05-05T02:12:46.102Z,98391.09
2023-05-05T02:15:31.813Z,98381.75
2023-05-05T02:18:18.591Z,98388.63
2023-05-05T02:21:05.026Z,98377.94
2023-05-05T02:23:51.133Z,98364.47
2023-05-05T02:26:40.150Z,98353.22
2023-05-05T02:29:39.430Z,98382.38
2023-05-05T02:32:35.984Z,98351.16
2023-05-05T02:35:26.704Z,98378.66
2023-05-05T02:38:16.930Z,98376.38
2023-05-05T02:41:05.214Z,98351.63
2023-05-05T02:43:52.135Z,98367.34
2023-05-05T02:46:38.042Z,98370.53
2023-05-05T02:49:23.297Z,98372.34
2023-05-05T02:52:09.133Z,98371.50
2023-05-05T02:54:56.162Z,98368.22
2023-05-05T02:57:48.326Z,98366.97
2023-05-05T03:00:42.524Z,98363.66
2023-05-05T03:03:37.575Z,98355.69
2023-05-05T03:06:26.451Z,98363.44
2023-05-05T03:09:30.357Z,98355.06
2023-05-05T03:12:20.820Z,98358.22
2023-05-05T03:15:49.264Z,98360.84
2023-05-05T03:18:38.561Z,98360.69
2023-05-05T03:21:24.225Z,98354.59
2023-05-05T03:24:17.780Z,98357.69
2023-05-05T03:27:09.013Z,98366.41
2023-05-05T03:29:57.027Z,98367.72
2023-05-05T03:32:43.308Z,98357.19
2023-05-05T03:35:29.092Z,98367.72
2023-05-05T03:38:14.485Z,98358.16
2023-05-05T03:41:02.472Z,98365.44
2023-05-05T03:43:47.937Z,98360.69
2023-05-05T03:46:33.111Z,98356.25
2023-05-05T03:49:18.562Z,98355.53
2023-05-05T03:52:05.527Z,98351.84
2023-05-05T03:54:51.422Z,98334.06
2023-05-05T03:57:37.185Z,98356.00
2023-05-05T04:00:22.293Z,98356.53
2023-05-05T04:03:08.026Z,98359.81
2023-05-05T04:05:53.280Z,98362.44
2023-05-05T04:08:40.091Z,98329.34
2023-05-05T04:11:25.790Z,98349.75
2023-05-05T04:14:12.836Z,98348.28
2023-05-05T04:16:58.075Z,98347.03
2023-05-05T04:19:43.528Z,98355.91
2023-05-05T04:22:29.097Z,98350.78
2023-05-05T04:25:14.894Z,98359.16
2023-05-05T04:28:00.430Z,98359.81
2023-05-05T04:30:47.257Z,98369.00
2023-05-05T04:33:32.507Z,98368.34
2023-05-05T04:36:18.193Z,98367.72
2023-05-05T04:39:04.325Z,98374.13
2023-05-05T04:41:49.873Z,98358.22
2023-05-05T04:44:35.143Z,98376.81
2023-05-05T04:47:20.771Z,98367.59
2023-05-05T04:50:07.553Z,98370.28
2023-05-05T04:52:53.006Z,98374.28
2023-05-05T04:55:41.531Z,98364.19
2023-05-05T04:58:26.715Z,98367.00
2023-05-05T05:01:14.098Z,98364.44
2023-05-05T05:03:59.609Z,98378.91
2023-05-05T05:06:45.014Z,98380.88
2023-05-05T05:09:30.326Z,98379.06
2023-05-05T05:12:16.184Z,98336.44
2023-05-05T05:15:01.729Z,98380.44
2023-05-05T05:17:47.509Z,98380.22
2023-05-05T05:20:33.337Z,98380.31
2023-05-05T05:23:19.437Z,98383.34
2023-05-05T05:26:06.296Z,98378.91
2023-05-05T05:28:52.369Z,98388.13
2023-05-05T05:31:38.059Z,98383.72
2023-05-05T05:34:23.731Z,98384.03
2023-05-05T05:37:09.464Z,98383.13
2023-05-05T05:39:55.278Z,98339.97
2023-05-05T05:42:42.011Z,98307.50
2023-05-05T05:45:29.179Z,98369.53
2023-05-05T05:48:15.182Z,98373.28
2023-05-05T05:51:00.771Z,98359.81
2023-05-05T05:53:46.560Z,98375.41
2023-05-05T05:56:32.278Z,98376.13
2023-05-05T05:59:17.795Z,98386.09
2023-05-05T06:02:02.989Z,98401.50
2023-05-05T06:04:48.075Z,98396.81
2023-05-05T06:07:33.820Z,98402.75
2023-05-05T06:13:12.358Z,98348.53
2023-05-05T06:16:01.682Z,98393.75
2023-05-05T06:18:46.965Z,98385.59
2023-05-05T06:21:32.671Z,98379.25
2023-05-05T06:24:18.070Z,98381.28
2023-05-05T06:27:03.577Z,98383.09
2023-05-05T06:29:49.109Z,98381.41
2023-05-05T06:32:34.278Z,98381.66
2023-05-05T06:35:19.765Z,98384.25
2023-05-05T06:38:05.184Z,98385.47
2023-05-05T06:40:50.490Z,98394.31
2023-05-05T06:43:35.691Z,98382.72
2023-05-05T06:46:25.618Z,98380.56
2023-05-05T06:49:11.098Z,98383.97
2023-05-05T06:51:56.241Z,98379.66
2023-05-05T06:54:42.561Z,98376.59
2023-05-05T06:57:27.530Z,98326.63
2023-05-05T07:00:13.605Z,98372.13
2023-05-05T07:02:59.119Z,98360.72
2023-05-05T07:05:44.135Z,98363.41
2023-05-05T07:08:29.407Z,98364.84
2023-05-05T07:11:14.674Z,98376.88
2023-05-05T07:14:00.462Z,98373.09
2023-05-05T07:16:45.733Z,98366.59
2023-05-05T07:19:30.828Z,98369.28
2023-05-05T07:22:16.180Z,98363.13
2023-05-05T07:25:02.730Z,98363.06
2023-05-05T07:27:48.678Z,98359.13
2023-05-05T07:30:33.988Z,98338.81
2023-05-05T07:33:19.100Z,98356.34
2023-05-05T07:36:04.720Z,98351.06
2023-05-05T07:38:49.801Z,98347.94
2023-05-05T07:41:35.078Z,98337.66
2023-05-05T07:44:20.275Z,98353.28
2023-05-05T07:47:05.514Z,98350.53
2023-05-05T07:49:51.080Z,98345.28
2023-05-05T07:52:46.694Z,98350.25
2023-05-05T07:55:37.200Z,98346.22
2023-05-05T07:58:22.476Z,98329.28
2023-05-05T08:01:08.218Z,98346.81
2023-05-05T08:03:53.544Z,98355.34
2023-05-05T08:06:38.762Z,98345.44
2023-05-05T08:09:24.106Z,98317.41
2023-05-05T08:12:09.548Z,98347.97
2023-05-05T08:14:54.882Z,98345.50
2023-05-05T08:17:50.981Z,98352.88
2023-05-05T08:20:36.391Z,98338.53
2023-05-05T08:23:21.774Z,98350.50
2023-05-05T08:26:07.517Z,98357.41
2023-05-05T08:28:53.169Z,98348.00
2023-05-05T08:31:38.397Z,98353.00
2023-05-05T08:34:23.906Z,98357.63
2023-05-05T08:37:09.366Z,98323.78
2023-05-05T08:39:54.567Z,98354.94
2023-05-05T08:42:40.828Z,98356.88
2023-05-05T08:45:28.192Z,98319.44
2023-05-05T08:48:17.079Z,98357.59
2023-05-05T08:51:05.617Z,98363.72
2023-05-05T08:53:53.823Z,98353.81
2023-05-05T08:56:40.562Z,98358.66
2023-05-05T08:59:26.070Z,98356.34
2023-05-05T09:02:12.537Z,98353.84
2023-05-05T09:04:58.050Z,98354.78
2023-05-05T09:07:44.345Z,98350.13
2023-05-05T09:10:30.349Z,98342.72
2023-05-05T09:13:15.684Z,98338.06
2023-05-05T09:16:00.975Z,98342.31
2023-05-05T09:18:46.124Z,98337.44
2023-05-05T09:21:31.562Z,98313.91
2023-05-05T09:24:16.711Z,98330.94
2023-05-05T09:27:21.752Z,98315.59
2023-05-05T09:30:09.401Z,98337.66
2023-05-05T09:32:55.200Z,98336.31
2023-05-05T09:35:54.732Z,98335.56
2023-05-05T09:38:39.803Z,98336.41
2023-05-05T09:41:41.847Z,98329.06
2023-05-05T09:44:37.836Z,98338.03
2023-05-05T09:47:34.931Z,98308.91
2023-05-05T09:50:22.037Z,98336.34
2023-05-05T09:53:08.094Z,98327.16
2023-05-05T09:55:58.215Z,98286.19
2023-05-05T09:58:43.366Z,98333.50
2023-05-05T10:01:28.491Z,98334.06
2023-05-05T10:04:27.709Z,98331.91
2023-05-05T10:07:23.476Z,98261.25
2023-05-05T10:10:11.650Z,98335.81
2023-05-05T10:12:57.839Z,98325.88
2023-05-05T10:15:45.720Z,98321.31
2023-05-05T10:18:32.210Z,98330.19
2023-05-05T10:21:20.604Z,98324.00
2023-05-05T10:24:46.516Z,98320.78
2023-05-05T10:27:38.864Z,98315.91
2023-05-05T10:30:29.281Z,98275.56
2023-05-05T10:33:32.006Z,98317.56
2023-05-05T10:36:20.177Z,98311.88
2023-05-05T10:39:06.138Z,98311.63
2023-05-05T10:41:52.114Z,98305.13
2023-05-05T10:44:37.538Z,98255.38
2023-05-05T10:47:24.369Z,98301.44
2023-05-05T10:50:29.510Z,98296.22
2023-05-05T10:53:28.131Z,98292.78
2023-05-05T10:56:30.163Z,98291.91
2023-05-05T10:59:37.169Z,98289.50
2023-05-05T11:02:29.760Z,98287.13
2023-05-05T11:05:17.062Z,98269.13
2023-05-05T11:08:25.714Z,98284.69
2023-05-05T11:11:12.133Z,98281.19
2023-05-05T11:14:20.490Z,98278.53
2023-05-05T11:17:44.507Z,98277.97
2023-05-05T11:20:35.732Z,98276.38
2023-05-05T11:23:20.857Z,98279.88
2023-05-05T11:26:06.225Z,98241.63
2023-05-05T11:28:57.338Z,98276.66
2023-05-05T11:31:42.894Z,98270.19
2023-05-05T11:34:28.597Z,98258.53
2023-05-05T11:37:15.331Z,98276.59
2023-05-05T11:40:13.388Z,98230.09
2023-05-05T11:43:05.652Z,98270.16
2023-05-05T11:46:09.732Z,98264.22
2023-05-05T11:48:55.116Z,98262.34
2023-05-05T11:51:40.482Z,98270.63
2023-05-05T11:54:26.201Z,98265.00
2023-05-05T11:57:11.342Z,98258.28
2023-05-05T12:00:05.895Z,98254.00
2023-05-05T12:02:56.462Z,98249.41
2023-05-05T12:05:42.121Z,98232.72
2023-05-05T12:08:28.041Z,98242.41
2023-05-05T12:11:13.491Z,98242.31
2023-05-05T12:14:11.626Z,98236.13
2023-05-05T12:17:01.176Z,98183.94
2023-05-05T12:19:48.104Z,98226.56
2023-05-05T12:22:33.745Z,98231.03
2023-05-05T12:25:18.939Z,98227.78
2023-05-05T12:28:05.644Z,98225.91
2023-05-05T12:30:59.940Z,98224.81
2023-05-05T12:33:45.654Z,98225.38
2023-05-05T12:36:32.597Z,98157.31
2023-05-05T12:39:17.974Z,98208.69
2023-05-05T12:42:06.637Z,98222.94
2023-05-05T12:44:52.254Z,98223.16
2023-05-05T12:47:37.487Z,98212.47
2023-05-05T12:50:32.556Z,98154.34
2023-05-05T12:53:24.866Z,98221.16
2023-05-05T12:56:47.672Z,98218.41
2023-05-05T12:59:32.720Z,98214.38
2023-05-05T13:02:18.398Z,98210.88
2023-05-05T13:05:03.700Z,98206.03
2023-05-05T13:07:50.918Z,98205.50
2023-05-05T13:10:35.979Z,98201.13
2023-05-05T13:13:21.265Z,98181.00
2023-05-05T13:16:07.484Z,98175.34
2023-05-05T13:18:52.831Z,98208.47
2023-05-05T13:21:38.080Z,98212.94
2023-05-05T13:24:38.094Z,98162.97
2023-05-05T13:27:30.177Z,98156.22
2023-05-05T13:30:15.687Z,98194.22
2023-05-05T13:33:02.101Z,98177.91
2023-05-05T13:35:49.849Z,98176.31
2023-05-05T13:38:35.069Z,98173.88
2023-05-05T13:41:20.764Z,98167.63
2023-05-05T13:44:06.322Z,98150.75
2023-05-05T13:46:51.821Z,98159.69
2023-05-05T13:49:36.960Z,98153.03
2023-05-05T13:52:22.340Z,98126.47
2023-05-05T13:55:08.382Z,98143.47
2023-05-05T13:57:54.056Z,98142.06
2023-05-05T14:00:39.788Z,98131.56
2023-05-05T14:03:25.136Z,98132.22
2023-05-05T14:06:10.527Z,98142.97
2023-05-05T14:08:55.820Z,98131.75
2023-05-05T14:11:41.255Z,98132.28
2023-05-05T14:14:26.581Z,98125.16
2023-05-05T14:17:11.877Z,98127.75
2023-05-05T14:19:57.129Z,98135.81
2023-05-05T14:22:42.369Z,98142.59
2023-05-05T14:25:52.342Z,98112.28
2023-05-05T14:28:37.498Z,98170.94
2023-05-05T14:31:22.659Z,98109.16
2023-05-05T14:34:07.790Z,98148.19
2023-05-05T14:36:53.527Z,98157.34
2023-05-05T14:39:38.915Z,98154.00
2023-05-05T14:42:25.126Z,98150.84
2023-05-05T14:45:11.130Z,98162.88
2023-05-05T14:47:57.170Z,98169.41
2023-05-05T14:50:42.842Z,98161.91
2023-05-05T14:53:28.047Z,98166.66
2023-05-05T14:56:13.822Z,98158.41
2023-05-05T14:58:59.086Z,98166.63
2023-05-05T15:01:44.317Z,98162.34
2023-05-05T15:04:29.629Z,98160.28
2023-05-05T15:07:14.905Z,98116.56
2023-05-05T15:10:00.376Z,98175.50
2023-05-05T15:12:46.105Z,98189.50
2023-05-05T15:15:31.301Z,98192.06
2023-05-05T15:18:16.803Z,98199.44
2023-05-05T15:21:02.269Z,98181.94
2023-05-05T15:23:47.401Z,98191.81
2023-05-05T15:26:32.724Z,98192.81
2023-05-05T15:29:17.995Z,98187.81
2023-05-05T15:32:03.479Z,98152.25
2023-05-05T15:34:50.225Z,98193.50
2023-05-05T15:37:36.316Z,98195.41
2023-05-05T15:40:22.523Z,98168.00
2023-05-05T15:43:09.738Z,98202.81
2023-05-05T15:45:58.296Z,98174.91
2023-05-05T15:48:46.573Z,98187.22
2023-05-05T15:51:32.374Z,98200.75
2023-05-05T15:54:30.660Z,98197.56
2023-05-05T15:57:20.962Z,98197.09
2023-05-05T16:00:11.389Z,98199.97
2023-05-05T16:02:57.455Z,98184.84
2023-05-05T16:05:42.721Z,98177.13
2023-05-05T16:08:27.932Z,98195.13
2023-05-05T16:11:14.202Z,98186.19
2023-05-05T16:13:59.728Z,98186.66
2023-05-05T16:16:46.409Z,98190.69
2023-05-05T16:19:31.920Z,98187.59
2023-05-05T16:22:16.996Z,98184.75
2023-05-05T16:25:02.311Z,98181.63
2023-05-05T16:27:47.738Z,98184.38
2023-05-05T16:30:32.949Z,98173.09
2023-05-05T16:33:18.437Z,98167.78
2023-05-05T16:36:04.065Z,98163.63
2023-05-05T16:38:53.969Z,98162.28
2023-05-05T16:41:40.163Z,98154.50
2023-05-05T16:44:25.476Z,98165.03
2023-05-05T16:47:10.792Z,98102.91
2023-05-05T16:49:56.274Z,98102.69
2023-05-05T16:52:43.036Z,98090.19
2023-05-05T16:55:28.583Z,98151.25
2023-05-05T16:58:13.691Z,98148.00
2023-05-05T17:00:58.967Z,98139.41
2023-05-05T17:03:44.243Z,98149.13
2023-05-05T17:06:32.988Z,98153.78
2023-05-05T17:09:18.556Z,98147.91
2023-05-05T17:12:04.461Z,98156.22
2023-05-05T17:14:49.881Z,98147.88
2023-05-05T17:17:35.248Z,98154.59
2023-05-05T17:20:20.631Z,98104.53
2023-05-05T17:23:06.770Z,98157.25
2023-05-05T17:25:52.645Z,98172.06
2023-05-05T17:28:39.395Z,98179.84
2023-05-05T17:31:25.882Z,98198.91
2023-05-05T17:34:11.544Z,98158.69
2023-05-05T17:36:56.974Z,98238.63
2023-05-05T17:39:45.837Z,98236.88
2023-05-05T17:42:31.885Z,98257.81
2023-05-05T17:45:17.943Z,98266.19
2023-05-05T17:48:06.462Z,98263.97
2023-05-05T17:50:51.829Z,98274.44
2023-05-05T17:53:37.260Z,98271.66
2023-05-05T17:56:23.977Z,98269.03
2023-05-05T17:59:13.365Z,98265.91
2023-05-05T18:02:00.914Z,98261.94
2023-05-05T18:04:47.083Z,98245.78
2023-05-05T18:07:32.550Z,98250.72
2023-05-05T18:10:17.772Z,98261.75
2023-05-05T18:13:03.788Z,98255.63
2023-05-05T18:15:50.290Z,98258.03
2023-05-05T18:18:35.725Z,98259.84
2023-05-05T18:21:21.158Z,98248.97
2023-05-05T18:24:18.629Z,98194.94
2023-05-05T18:27:06.890Z,98246.75
2023-05-05T18:29:52.310Z,98176.31
2023-05-05T18:32:38.345Z,98190.38
2023-05-05T18:35:24.032Z,98231.91
2023-05-05T18:38:09.309Z,98199.47
2023-05-05T18:40:55.553Z,98256.88
2023-05-05T18:43:41.270Z,98254.13
2023-05-05T18:46:26.625Z,98226.19
2023-05-05T18:49:14.866Z,98257.72
2023-05-05T18:52:00.216Z,98262.22
2023-05-05T18:54:45.682Z,98264.63
2023-05-05T18:57:35.539Z,98269.50
2023-05-05T19:00:21.262Z,98263.13
2023-05-05T19:03:06.826Z,98263.63
2023-05-05T19:05:52.714Z,98268.75
2023-05-05T19:08:38.755Z,98249.84
2023-05-05T19:11:24.999Z,98214.47
2023-05-05T19:14:11.451Z,98251.63
2023-05-05T19:16:57.385Z,98250.63
2023-05-05T19:19:45.580Z,98276.00
2023-05-05T19:22:30.826Z,98242.44
2023-05-05T19:25:16.996Z,98271.44
2023-05-05T19:28:02.597Z,98293.72
2023-05-05T19:30:49.666Z,98310.16
2023-05-05T19:33:37.616Z,98307.22
2023-05-05T19:36:23.186Z,98297.75
2023-05-05T19:39:09.026Z,98302.03
2023-05-05T19:41:54.565Z,98293.31
2023-05-05T19:44:40.128Z,98295.84
2023-05-05T19:47:25.859Z,98296.94
2023-05-05T19:50:12.240Z,98239.38
2023-05-05T19:52:58.078Z,98284.28
2023-05-05T19:55:43.437Z,98305.81
2023-05-05T19:58:28.877Z,98229.91
2023-05-05T20:01:14.304Z,98298.13
2023-05-05T20:04:03.954Z,98293.44
2023-05-05T20:06:50.233Z,98292.16
2023-05-05T20:09:35.604Z,98286.28
2023-05-05T20:12:20.815Z,98286.97
2023-05-05T20:15:07.125Z,98279.72
2023-05-05T20:17:52.309Z,98287.91
2023-05-05T20:20:37.887Z,98280.91
2023-05-05T20:23:23.371Z,98282.97
2023-05-05T20:26:09.440Z,98294.38
2023-05-05T20:28:54.962Z,98288.13
2023-05-05T20:31:40.190Z,98273.94
2023-05-05T20:34:25.495Z,98279.25
2023-05-05T20:37:12.447Z,98270.69
2023-05-05T20:39:58.846Z,98254.59
2023-05-05T20:42:44.102Z,98268.78
2023-05-05T20:45:29.222Z,98275.44
2023-05-05T20:48:14.720Z,98277.88
2023-05-05T20:51:03.658Z,98218.69
2023-05-05T20:53:49.110Z,98270.19
2023-05-05T20:56:34.314Z,98217.38
2023-05-05T20:59:19.448Z,98275.66
2023-05-05T21:02:04.633Z,98279.94
2023-05-05T21:04:50.378Z,98280.75
2023-05-05T21:07:35.527Z,98287.84
2023-05-05T21:10:21.121Z,98289.31
2023-05-05T21:13:06.327Z,98288.38
2023-05-05T21:15:51.661Z,98286.00
2023-05-05T21:18:36.695Z,98278.84
2023-05-05T21:21:22.051Z,98278.84
2023-05-05T21:24:08.243Z,98292.38
2023-05-05T21:26:53.995Z,98288.81
2023-05-05T21:29:39.433Z,98289.09
2023-05-05T21:32:25.166Z,98285.91
2023-05-05T21:35:10.853Z,98250.38
2023-05-05T21:37:56.381Z,98286.84
2023-05-05T21:40:41.575Z,98288.63
2023-05-05T21:43:27.200Z,98286.34
2023-05-05T21:46:12.288Z,98290.38
2023-05-05T21:48:59.684Z,98295.38
2023-05-05T21:51:46.290Z,98288.47
2023-05-05T21:54:31.453Z,98284.75
2023-05-05T21:57:16.978Z,98286.31
2023-05-05T22:00:03.336Z,98292.47
2023-05-05T22:02:57.680Z,98288.41
2023-05-05T22:05:42.840Z,98285.06
2023-05-05T22:08:28.312Z,98287.31
2023-05-05T22:11:13.946Z,98291.66
2023-05-05T22:13:59.347Z,98284.28
2023-05-05T22:16:44.547Z,98284.47
2023-05-05T22:19:29.557Z,98290.00
2023-05-05T22:22:14.711Z,98292.31
2023-05-05T22:24:59.848Z,98290.06
2023-05-05T22:27:45.316Z,98275.69
2023-05-05T22:30:30.921Z,98288.91
2023-05-05T22:33:16.795Z,98280.63
2023-05-05T22:36:02.102Z,98294.97
2023-05-05T22:38:47.209Z,98313.28
2023-05-05T22:41:32.302Z,98306.00
2023-05-05T22:44:18.480Z,98302.69
2023-05-05T22:47:03.831Z,98303.16
2023-05-05T22:49:49.202Z,98291.09
2023-05-05T22:52:34.415Z,98289.47
2023-05-05T22:55:19.669Z,98280.69
2023-05-05T22:58:04.859Z,98268.94
2023-05-05T23:00:49.970Z,98265.00
2023-05-05T23:03:35.284Z,98262.56
2023-05-05T23:06:20.505Z,98247.16
2023-05-05T23:09:06.079Z,98270.31
2023-05-05T23:11:52.690Z,98273.72
2023-05-05T23:14:38.071Z,98210.50
2023-05-05T23:17:23.682Z,98265.53
2023-05-05T23:20:09.437Z,98269.72
2023-05-05T23:22:55.414Z,98268.84
2023-05-05T23:25:40.601Z,98254.88
2023-05-05T23:28:26.344Z,98274.66
2023-05-05T23:31:11.900Z,98277.59
2023-05-05T23:33:57.319Z,98281.91
2023-05-05T23:36:43.516Z,98277.41
2023-05-05T23:39:28.664Z,98274.63
2023-05-05T23:42:14.097Z,98271.50
2023-05-05T23:44:59.574Z,98206.91
2023-05-05T23:47:44.865Z,98272.78
2023-05-05T23:50:30.321Z,98275.06
2023-05-05T23:53:15.910Z,98267.25
2023-05-05T23:56:01.661Z,98265.19
2023-05-05T23:58:47.419Z,98271.69
